Time;durP1;ratioP1;P1;durP2;ratioP2;P2;SDS_P1;SDS_P2;PMS_P1;PMS_P2;Temp;Humidity;BMP_temperature;BMP_pressure;BME280_temperature;BME280_humidity;BME280_pressure;Samples;Min_cycle;Max_cycle;Signal;HPM_P1;HPM_P2
2023/12/06 00:01:04;;;;;;;51.88;25.50;;;1.50;99.90;;;;;;6210659;23;20016;-68
2023/12/06 00:03:30;;;;;;;52.38;26.15;;;1.50;99.90;;;;;;6211094;23;20438;-68
2023/12/06 00:05:55;;;;;;;52.42;25.70;;;1.50;99.90;;;;;;6211283;23;20031;-68
2023/12/06 00:08:21;;;;;;;49.78;22.80;;;1.60;99.90;;;;;;6184676;23;20047;-68
2023/12/06 00:10:47;;;;;;;51.60;24.95;;;1.50;99.90;;;;;;6211780;23;20020;-68
2023/12/06 00:13:13;;;;;;;48.65;25.08;;;1.60;99.90;;;;;;6184106;23;20020;-68
2023/12/06 00:15:39;;;;;;;51.33;26.30;;;1.60;99.90;;;;;;6211248;23;20017;-68
2023/12/06 00:18:05;;;;;;;44.30;22.73;;;1.50;99.90;;;;;;6211219;23;20039;-68
2023/12/06 00:20:30;;;;;;;48.35;24.13;;;1.50;99.90;;;;;;6211012;23;20027;-68
2023/12/06 00:22:56;;;;;;;48.75;23.92;;;1.50;99.90;;;;;;6184094;23;20055;-68
2023/12/06 00:25:22;;;;;;;47.17;23.77;;;1.50;99.90;;;;;;6210957;23;20393;-68
2023/12/06 00:27:48;;;;;;;50.13;23.50;;;1.60;99.90;;;;;;6210932;23;20032;-68
2023/12/06 00:30:14;;;;;;;51.50;24.15;;;1.60;99.90;;;;;;6211216;23;20024;-68
2023/12/06 00:32:39;;;;;;;46.50;23.67;;;1.50;99.90;;;;;;6210424;23;20017;-68
2023/12/06 00:35:07;;;;;;;49.42;24.25;;;1.50;99.90;;;;;;6210971;23;20027;-68
2023/12/06 00:37:33;;;;;;;49.63;23.27;;;1.50;99.90;;;;;;6210809;23;20057;-68
2023/12/06 00:39:59;;;;;;;46.97;22.05;;;1.60;99.90;;;;;;6211014;23;20079;-68
2023/12/06 00:42:24;;;;;;;46.05;23.77;;;1.50;99.90;;;;;;6211021;23;20096;-68
2023/12/06 00:44:50;;;;;;;49.90;24.25;;;1.60;99.90;;;;;;6211017;23;20082;-68
2023/12/06 00:47:16;;;;;;;46.53;24.70;;;1.60;99.90;;;;;;6183853;23;20032;-68
2023/12/06 00:49:41;;;;;;;47.35;24.05;;;1.60;99.90;;;;;;6210347;23;20028;-68
2023/12/06 00:52:08;;;;;;;47.47;23.83;;;1.60;99.90;;;;;;6210156;23;20024;-68
2023/12/06 00:54:33;;;;;;;48.42;24.80;;;1.60;99.90;;;;;;6210918;23;20035;-68
2023/12/06 00:56:59;;;;;;;46.20;23.67;;;1.60;99.90;;;;;;6183762;23;20028;-68
2023/12/06 00:59:25;;;;;;;47.78;23.52;;;1.50;99.90;;;;;;6210879;23;20020;-68
2023/12/06 01:01:50;;;;;;;44.70;22.30;;;1.60;99.90;;;;;;6210825;23;20020;-68
2023/12/06 01:04:16;;;;;;;42.88;22.65;;;1.60;99.90;;;;;;6210664;23;20016;-68
2023/12/06 01:06:42;;;;;;;44.10;23.85;;;1.70;99.90;;;;;;6210387;23;20050;-68
2023/12/06 01:09:08;;;;;;;46.92;23.92;;;1.70;99.90;;;;;;6210792;23;20028;-68
2023/12/06 01:11:34;;;;;;;46.05;22.55;;;1.60;99.90;;;;;;6211191;23;20047;-68
2023/12/06 01:13:59;;;;;;;49.50;25.55;;;1.60;99.90;;;;;;6184267;23;20020;-68
2023/12/06 01:16:25;;;;;;;43.92;24.05;;;1.70;99.90;;;;;;6211005;23;20013;-68
2023/12/06 01:18:51;;;;;;;48.72;23.17;;;1.60;99.90;;;;;;6211098;23;20092;-68
2023/12/06 01:21:16;;;;;;;48.33;23.65;;;1.70;99.90;;;;;;6183543;23;20020;-68
2023/12/06 01:23:42;;;;;;;52.42;24.45;;;1.70;99.90;;;;;;6210506;23;20444;-68
2023/12/06 01:26:08;;;;;;;47.97;24.05;;;1.70;99.90;;;;;;6210678;23;20028;-68
2023/12/06 01:28:33;;;;;;;49.75;25.30;;;1.70;99.90;;;;;;6210754;23;20016;-68
2023/12/06 01:30:59;;;;;;;51.50;23.95;;;1.70;99.90;;;;;;6210621;23;20013;-68
2023/12/06 01:33:25;;;;;;;47.83;24.25;;;1.70;99.90;;;;;;6210330;23;20020;-68
2023/12/06 01:35:50;;;;;;;54.03;24.77;;;1.70;99.90;;;;;;6210460;23;20437;-68
2023/12/06 01:38:16;;;;;;;47.47;23.33;;;1.70;99.90;;;;;;6210549;23;20393;-68
2023/12/06 01:40:43;;;;;;;48.03;24.05;;;1.70;99.90;;;;;;6210549;23;20021;-68
2023/12/06 01:43:09;;;;;;;47.63;24.15;;;1.70;99.90;;;;;;6210706;23;20029;-68
2023/12/06 01:45:35;;;;;;;53.05;26.13;;;1.80;99.90;;;;;;6210875;23;20467;-68
2023/12/06 01:48:02;;;;;;;46.70;25.20;;;1.70;99.90;;;;;;6210714;23;20026;-68
2023/12/06 01:50:28;;;;;;;47.13;24.70;;;1.80;99.90;;;;;;6183952;23;20040;-68
2023/12/06 01:52:58;;;;;;;52.38;25.63;;;1.70;99.90;;;;;;6211426;23;20024;-68
2023/12/06 01:55:24;;;;;;;46.30;24.65;;;1.70;99.90;;;;;;6212748;23;20059;-68
2023/12/06 01:57:51;;;;;;;49.42;24.83;;;1.80;99.90;;;;;;6185341;23;20469;-68
2023/12/06 02:00:17;;;;;;;48.33;25.35;;;1.80;99.90;;;;;;6212757;23;20027;-68
2023/12/06 02:02:44;;;;;;;47.40;25.40;;;1.80;99.90;;;;;;6212544;23;20028;-68
2023/12/06 02:05:12;;;;;;;50.83;25.88;;;1.80;99.90;;;;;;6212638;23;20020;-68
2023/12/06 02:07:39;;;;;;;52.13;24.73;;;1.80;99.90;;;;;;6212676;23;20072;-68
2023/12/06 02:10:06;;;;;;;54.70;24.95;;;1.80;99.90;;;;;;6212636;23;20024;-68
2023/12/06 02:12:32;;;;;;;50.53;26.33;;;1.90;99.90;;;;;;6212157;23;20079;-68
2023/12/06 02:14:59;;;;;;;51.13;25.58;;;1.90;99.90;;;;;;6212411;23;20020;-68
2023/12/06 02:17:27;;;;;;;53.75;25.13;;;1.90;99.90;;;;;;6212453;23;20021;-68
2023/12/06 02:19:54;;;;;;;51.08;24.88;;;1.90;99.90;;;;;;6212547;23;20047;-68
2023/12/06 02:22:21;;;;;;;49.13;23.95;;;1.90;99.90;;;;;;6212431;23;20355;-68
2023/12/06 02:24:51;;;;;;;49.60;24.85;;;1.90;99.90;;;;;;6212596;23;20024;-68
2023/12/06 02:27:17;;;;;;;47.97;24.58;;;1.90;99.90;;;;;;6185831;23;20084;-68
2023/12/06 02:29:43;;;;;;;47.20;24.23;;;2.00;99.90;;;;;;6185477;23;20059;-68
2023/12/06 02:32:08;;;;;;;53.53;24.42;;;1.90;99.90;;;;;;6184767;23;20039;-68
2023/12/06 02:34:37;;;;;;;52.97;25.65;;;1.90;99.90;;;;;;6160403;23;20028;-68
2023/12/06 02:37:05;;;;;;;50.38;24.45;;;2.00;99.90;;;;;;6212167;23;20389;-68
2023/12/06 02:39:42;;;;;;;49.15;24.33;;;2.00;99.90;;;;;;6211960;23;20426;-68
2023/12/06 02:42:09;;;;;;;49.60;24.23;;;1.90;99.90;;;;;;6212200;23;20016;-68
2023/12/06 02:44:35;;;;;;;49.53;24.60;;;1.90;99.90;;;;;;6212175;23;20027;-68
2023/12/06 02:47:01;;;;;;;46.95;24.23;;;1.90;99.90;;;;;;6184949;23;20032;-68
2023/12/06 02:49:27;;;;;;;48.50;23.38;;;2.00;99.90;;;;;;6212331;23;20013;-68
2023/12/06 02:51:52;;;;;;;46.65;24.40;;;2.00;99.90;;;;;;6211797;23;20512;-68
2023/12/06 02:54:18;;;;;;;46.58;24.42;;;2.00;99.90;;;;;;6184785;23;20024;-68
2023/12/06 02:56:44;;;;;;;51.20;24.42;;;2.00;99.90;;;;;;6212239;23;20027;-68
2023/12/06 02:59:09;;;;;;;47.08;22.02;;;2.00;99.90;;;;;;6211860;23;20635;-68
2023/12/06 03:01:35;;;;;;;48.75;24.10;;;2.00;99.90;;;;;;6211710;23;20024;-68
2023/12/06 03:04:01;;;;;;;47.72;24.02;;;1.90;99.90;;;;;;6211629;23;20016;-68
2023/12/06 03:06:27;;;;;;;47.38;23.75;;;2.00;99.90;;;;;;6211772;23;20402;-68
2023/12/06 03:08:52;;;;;;;45.08;23.65;;;2.00;99.90;;;;;;6211399;23;20012;-68
2023/12/06 03:11:18;;;;;;;45.22;22.20;;;2.00;99.90;;;;;;6211659;23;20063;-67
2023/12/06 03:13:44;;;;;;;46.25;23.25;;;2.00;99.90;;;;;;6211973;23;20013;-68
2023/12/06 03:16:09;;;;;;;47.10;23.15;;;2.00;99.90;;;;;;6184496;23;20491;-67
2023/12/06 03:18:35;;;;;;;47.60;22.85;;;2.00;99.90;;;;;;6211863;23;20121;-68
2023/12/06 03:21:01;;;;;;;42.13;21.98;;;2.00;99.90;;;;;;6184682;23;20027;-68
2023/12/06 03:23:26;;;;;;;42.10;21.88;;;2.00;99.90;;;;;;6211689;23;20036;-68
2023/12/06 03:25:52;;;;;;;48.67;23.00;;;2.00;99.90;;;;;;6211814;23;20023;-68
2023/12/06 03:28:18;;;;;;;46.17;23.02;;;2.00;99.90;;;;;;6211541;23;20032;-68
2023/12/06 03:30:44;;;;;;;45.83;23.10;;;2.10;99.90;;;;;;6211409;23;20457;-67
2023/12/06 03:33:09;;;;;;;43.72;22.45;;;2.00;99.90;;;;;;6211416;23;20020;-67
2023/12/06 03:35:35;;;;;;;46.42;22.98;;;2.00;99.90;;;;;;6212244;23;20383;-67
2023/12/06 03:38:01;;;;;;;42.00;22.77;;;2.00;99.90;;;;;;6211454;23;20023;-68
2023/12/06 03:40:26;;;;;;;43.28;21.52;;;2.00;99.90;;;;;;6211716;23;20015;-68
2023/12/06 03:42:53;;;;;;;41.80;22.27;;;2.00;99.90;;;;;;6211631;23;20027;-68
2023/12/06 03:45:18;;;;;;;41.25;22.35;;;2.00;99.90;;;;;;6211004;23;20026;-68
2023/12/06 03:47:45;;;;;;;40.95;21.73;;;2.00;99.90;;;;;;6211454;23;20020;-68
2023/12/06 03:50:10;;;;;;;39.00;21.27;;;2.00;99.90;;;;;;6211200;23;20086;-68
2023/12/06 03:52:36;;;;;;;37.63;20.77;;;2.00;99.90;;;;;;6211690;23;20021;-68
2023/12/06 03:55:02;;;;;;;42.15;20.58;;;2.00;99.90;;;;;;6184633;23;20441;-68
2023/12/06 03:57:29;;;;;;;44.28;21.45;;;2.00;99.90;;;;;;6211876;23;20055;-68
2023/12/06 03:59:54;;;;;;;41.88;21.20;;;2.00;99.90;;;;;;6211715;23;20338;-68
2023/12/06 04:02:20;;;;;;;42.72;21.42;;;2.00;99.90;;;;;;6211435;23;20031;-68
2023/12/06 04:04:46;;;;;;;38.47;21.02;;;2.00;99.90;;;;;;6211662;23;20016;-68
2023/12/06 04:07:11;;;;;;;39.10;20.67;;;2.10;99.90;;;;;;6211363;23;20104;-68
2023/12/06 04:09:38;;;;;;;39.97;20.83;;;2.00;99.90;;;;;;6211299;23;20020;-68
2023/12/06 04:12:04;;;;;;;35.95;19.52;;;2.00;99.90;;;;;;6210882;23;20059;-68
2023/12/06 04:14:30;;;;;;;38.78;19.13;;;2.00;99.90;;;;;;6210867;23;20021;-68
2023/12/06 04:16:56;;;;;;;39.45;19.40;;;2.10;99.90;;;;;;6210825;23;20023;-68
2023/12/06 04:19:21;;;;;;;36.05;19.55;;;2.00;99.90;;;;;;6210838;23;20024;-68
2023/12/06 04:21:47;;;;;;;38.45;20.58;;;1.90;99.90;;;;;;6210770;23;20023;-68
2023/12/06 04:24:13;;;;;;;37.13;19.75;;;2.00;99.90;;;;;;6211397;23;20012;-68
2023/12/06 04:26:38;;;;;;;35.05;19.42;;;2.00;99.90;;;;;;6211487;23;20516;-68
2023/12/06 04:29:04;;;;;;;39.92;20.55;;;2.00;99.90;;;;;;6211016;23;20044;-68
2023/12/06 04:31:30;;;;;;;35.58;19.50;;;2.00;99.90;;;;;;6184124;23;20658;-68
2023/12/06 04:33:55;;;;;;;37.95;20.30;;;2.00;99.90;;;;;;6210976;23;20123;-68
2023/12/06 04:36:21;;;;;;;37.28;19.38;;;2.00;99.90;;;;;;6211051;23;20095;-68
2023/12/06 04:38:47;;;;;;;37.40;20.42;;;2.00;99.90;;;;;;6184113;23;20016;-68
2023/12/06 04:41:13;;;;;;;36.60;19.67;;;2.10;99.90;;;;;;6183940;23;20048;-68
2023/12/06 04:43:38;;;;;;;35.03;19.42;;;1.90;99.90;;;;;;6210420;23;20020;-68
2023/12/06 04:46:04;;;;;;;37.58;19.90;;;2.00;99.90;;;;;;6210802;23;20017;-68
2023/12/06 04:48:30;;;;;;;37.92;19.90;;;2.00;99.90;;;;;;6211445;23;20523;-68
2023/12/06 04:50:55;;;;;;;36.72;19.13;;;2.00;99.90;;;;;;6210466;23;20116;-68
2023/12/06 04:53:21;;;;;;;32.92;18.42;;;2.00;99.90;;;;;;6210597;23;20587;-68
2023/12/06 04:55:47;;;;;;;36.08;19.60;;;2.00;99.90;;;;;;6210856;23;20016;-70
2023/12/06 04:58:13;;;;;;;35.85;18.98;;;2.10;99.90;;;;;;6210810;23;20016;-68
2023/12/06 05:00:39;;;;;;;41.10;19.98;;;2.10;99.90;;;;;;6211064;23;20083;-68
2023/12/06 05:03:05;;;;;;;36.38;18.52;;;2.00;99.90;;;;;;6210793;23;20052;-68
2023/12/06 05:05:30;;;;;;;32.80;19.23;;;2.00;99.90;;;;;;6210924;23;20142;-68
2023/12/06 05:07:56;;;;;;;35.08;19.05;;;2.10;99.90;;;;;;6210712;23;20024;-68
2023/12/06 05:10:22;;;;;;;33.47;18.25;;;2.10;99.90;;;;;;6183753;23;20194;-68
2023/12/06 05:12:48;;;;;;;35.88;19.45;;;2.10;99.90;;;;;;6210518;23;20068;-70
2023/12/06 05:15:14;;;;;;;38.13;20.20;;;2.10;99.90;;;;;;6210984;23;20063;-68
2023/12/06 05:17:40;;;;;;;33.08;18.70;;;2.10;99.90;;;;;;6211004;23;20107;-68
2023/12/06 05:20:06;;;;;;;39.00;19.98;;;2.10;99.90;;;;;;6210656;23;20039;-68
2023/12/06 05:22:33;;;;;;;30.00;17.92;;;2.10;99.90;;;;;;6210572;23;20028;-69
2023/12/06 05:24:59;;;;;;;33.30;17.55;;;2.10;99.90;;;;;;6210532;23;20020;-68
2023/12/06 05:27:25;;;;;;;30.35;17.95;;;2.10;99.90;;;;;;6211106;23;20020;-68
2023/12/06 05:29:51;;;;;;;33.35;18.55;;;2.20;99.90;;;;;;6212718;23;20445;-68
2023/12/06 05:32:17;;;;;;;28.73;17.35;;;2.20;99.90;;;;;;6212366;23;20032;-68
2023/12/06 05:34:43;;;;;;;32.00;18.83;;;2.20;99.90;;;;;;6212406;23;20017;-68
2023/12/06 05:37:08;;;;;;;28.75;18.02;;;2.20;99.90;;;;;;6212454;23;20091;-68
2023/12/06 05:39:36;;;;;;;30.58;17.45;;;2.20;99.90;;;;;;6212382;23;20028;-68
2023/12/06 05:42:03;;;;;;;28.45;16.73;;;2.20;99.90;;;;;;6212378;23;20681;-68
2023/12/06 05:44:30;;;;;;;31.90;17.38;;;2.20;99.90;;;;;;6212755;23;20023;-68
2023/12/06 05:46:56;;;;;;;29.65;17.60;;;2.20;99.90;;;;;;6212354;23;20021;-68
2023/12/06 05:49:22;;;;;;;32.08;18.05;;;2.20;99.90;;;;;;6212717;23;20063;-69
2023/12/06 05:51:48;;;;;;;32.33;16.30;;;2.20;99.90;;;;;;6212338;23;20035;-68
2023/12/06 05:54:14;;;;;;;28.77;16.77;;;2.20;99.90;;;;;;6212415;23;20017;-68
2023/12/06 05:56:40;;;;;;;31.70;15.98;;;2.20;99.90;;;;;;6212298;23;20489;-68
2023/12/06 05:59:06;;;;;;;24.00;14.95;;;2.20;99.90;;;;;;6160712;23;20020;-68
2023/12/06 06:01:31;;;;;;;26.35;15.40;;;2.20;99.90;;;;;;6212865;23;20020;-69
2023/12/06 06:03:57;;;;;;;27.17;15.43;;;2.20;99.90;;;;;;6212337;23;20087;-68
2023/12/06 06:06:23;;;;;;;24.95;15.38;;;2.20;99.90;;;;;;6212634;23;20024;-68
2023/12/06 06:08:48;;;;;;;27.23;15.57;;;2.20;99.90;;;;;;6213371;23;20027;-69
2023/12/06 06:11:14;;;;;;;28.40;14.88;;;2.20;99.90;;;;;;6212422;23;20016;-68
2023/12/06 06:13:40;;;;;;;23.63;14.30;;;2.20;99.90;;;;;;6212440;23;20469;-68
2023/12/06 06:16:06;;;;;;;27.42;14.75;;;2.20;99.90;;;;;;6212368;23;20096;-67
2023/12/06 06:18:32;;;;;;;27.48;14.82;;;2.30;99.90;;;;;;6211956;23;20504;-68
2023/12/06 06:20:58;;;;;;;26.85;14.75;;;2.30;99.90;;;;;;6212477;23;20021;-68
2023/12/06 06:23:24;;;;;;;25.13;15.05;;;2.30;99.90;;;;;;6212436;23;20021;-68
2023/12/06 06:25:50;;;;;;;24.55;14.82;;;2.30;99.90;;;;;;6212089;23;20091;-67
2023/12/06 06:28:15;;;;;;;22.65;14.93;;;2.30;99.90;;;;;;6212122;23;20024;-68
2023/12/06 06:30:41;;;;;;;22.80;15.23;;;2.40;99.90;;;;;;6212312;23;20040;-68
2023/12/06 06:33:07;;;;;;;22.92;14.13;;;2.30;99.90;;;;;;6211858;23;20400;-68
2023/12/06 06:35:34;;;;;;;28.15;15.60;;;2.30;99.90;;;;;;6184903;23;20050;-68
2023/12/06 06:38:01;;;;;;;23.67;14.57;;;2.30;99.90;;;;;;6211202;23;20016;-68
2023/12/06 06:40:27;;;;;;;25.30;14.45;;;2.40;99.90;;;;;;6211762;23;20020;-68
2023/12/06 06:42:54;;;;;;;26.23;15.05;;;2.40;99.90;;;;;;6212056;23;20440;-68
2023/12/06 06:45:20;;;;;;;24.70;14.15;;;2.30;99.90;;;;;;6212050;23;20028;-68
2023/12/06 06:47:46;;;;;;;28.33;14.93;;;2.40;99.90;;;;;;6211996;23;20380;-67
2023/12/06 06:50:12;;;;;;;26.23;14.90;;;2.40;99.90;;;;;;6211910;23;20019;-67
2023/12/06 06:52:38;;;;;;;25.38;15.23;;;2.40;99.90;;;;;;6211260;23;20040;-68
2023/12/06 06:55:07;;;;;;;26.00;14.95;;;2.40;99.90;;;;;;6212199;23;20051;-69
2023/12/06 06:57:32;;;;;;;23.60;14.30;;;2.40;99.90;;;;;;6212407;23;20012;-68
2023/12/06 06:59:58;;;;;;;26.38;14.77;;;2.60;99.90;;;;;;6211908;23;20400;-68
2023/12/06 07:02:24;;;;;;;28.00;14.90;;;2.50;99.90;;;;;;6212275;23;20021;-68
2023/12/06 07:04:51;;;;;;;26.45;14.82;;;2.50;99.90;;;;;;6212257;23;20771;-68
2023/12/06 07:07:17;;;;;;;26.95;16.30;;;2.50;99.90;;;;;;6184771;23;20055;-68
2023/12/06 07:09:43;;;;;;;25.92;14.32;;;2.50;99.90;;;;;;6212052;23;20016;-68
2023/12/06 07:12:09;;;;;;;25.42;15.05;;;2.50;99.90;;;;;;6185020;23;20063;-69
2023/12/06 07:14:35;;;;;;;27.25;16.08;;;2.50;99.90;;;;;;6210918;23;20098;-69
2023/12/06 07:17:02;;;;;;;25.98;16.33;;;2.50;99.90;;;;;;6211499;23;20020;-69
2023/12/06 07:19:27;;;;;;;33.25;19.15;;;2.50;99.90;;;;;;6184754;23;20020;-69
2023/12/06 07:21:53;;;;;;;27.38;17.08;;;2.50;99.90;;;;;;6211765;23;20444;-69
2023/12/06 07:24:20;;;;;;;30.25;16.83;;;2.50;99.90;;;;;;6211720;23;20023;-69
2023/12/06 07:26:46;;;;;;;22.92;15.50;;;2.60;99.90;;;;;;6211570;23;20064;-69
2023/12/06 07:29:12;;;;;;;32.60;18.35;;;2.60;99.90;;;;;;6211759;23;20389;-68
2023/12/06 07:31:39;;;;;;;35.63;20.38;;;2.50;99.90;;;;;;6184490;23;20133;-69
2023/12/06 07:34:05;;;;;;;27.75;17.02;;;2.60;99.90;;;;;;6211257;23;20021;-69
2023/12/06 07:36:31;;;;;;;27.55;17.05;;;2.60;99.90;;;;;;6211315;23;20315;-69
2023/12/06 07:38:57;;;;;;;27.75;16.88;;;2.60;99.90;;;;;;6211714;23;20013;-68
2023/12/06 07:41:23;;;;;;;29.02;16.98;;;2.60;99.90;;;;;;6211637;23;20098;-68
2023/12/06 07:43:49;;;;;;;32.97;17.98;;;2.60;99.90;;;;;;6211683;23;20020;-69
2023/12/06 07:46:15;;;;;;;27.60;17.42;;;2.60;99.90;;;;;;6211524;23;20605;-68
2023/12/06 07:48:41;;;;;;;25.20;15.82;;;2.60;99.90;;;;;;6211461;23;20016;-69
2023/12/06 07:51:07;;;;;;;24.70;15.70;;;2.60;99.90;;;;;;6211028;23;20017;-68
2023/12/06 07:53:32;;;;;;;27.10;16.63;;;2.60;99.90;;;;;;6211609;23;20034;-69
2023/12/06 07:55:58;;;;;;;29.35;16.15;;;2.60;99.90;;;;;;6211109;23;20456;-69
2023/12/06 07:58:30;;;;;;;23.40;16.52;;;2.60;99.90;;;;;;6211153;23;20021;-69
2023/12/06 08:00:58;;;;;;;27.77;16.23;;;2.60;99.90;;;;;;6211039;23;20051;-69
2023/12/06 08:03:30;;;;;;;24.73;15.35;;;2.70;99.90;;;;;;6211436;23;20352;-69
2023/12/06 08:05:56;;;;;;;28.07;16.23;;;2.70;99.90;;;;;;6184061;23;20036;-69
2023/12/06 08:08:21;;;;;;;24.17;16.35;;;2.70;99.90;;;;;;6211476;23;20540;-69
2023/12/06 08:10:47;;;;;;;25.60;15.82;;;2.70;99.90;;;;;;6211060;23;20038;-69
2023/12/06 08:13:13;;;;;;;27.58;15.10;;;2.70;99.90;;;;;;6210828;23;20021;-69
2023/12/06 08:15:38;;;;;;;26.42;15.70;;;2.70;99.90;;;;;;6210770;23;20063;-69
2023/12/06 08:18:06;;;;;;;22.98;15.55;;;2.70;99.90;;;;;;6184020;23;20035;-70
2023/12/06 08:20:32;;;;;;;21.52;15.27;;;2.70;99.90;;;;;;6210777;23;20432;-69
2023/12/06 08:22:58;;;;;;;24.45;15.38;;;2.70;99.90;;;;;;6211115;23;20115;-69
2023/12/06 08:25:23;;;;;;;24.00;14.55;;;2.80;99.90;;;;;;6210997;23;20023;-69
2023/12/06 08:27:49;;;;;;;23.95;15.00;;;2.80;99.90;;;;;;6210496;23;20403;-70
2023/12/06 08:30:15;;;;;;;20.92;13.80;;;2.80;99.90;;;;;;6210856;23;20024;-69
2023/12/06 08:32:41;;;;;;;24.00;14.95;;;2.80;99.90;;;;;;6210666;23;20024;-70
2023/12/06 08:35:07;;;;;;;21.52;14.13;;;2.70;99.90;;;;;;6210994;23;20070;-70
2023/12/06 08:37:32;;;;;;;22.65;14.60;;;2.80;99.90;;;;;;6184502;23;20012;-70
2023/12/06 08:39:58;;;;;;;21.60;13.98;;;2.80;99.90;;;;;;6211636;23;20170;-70
2023/12/06 08:42:24;;;;;;;23.58;14.43;;;2.80;99.90;;;;;;6184415;23;20012;-69
2023/12/06 08:44:50;;;;;;;21.13;13.18;;;2.90;99.90;;;;;;6211055;23;20020;-69
2023/12/06 08:47:17;;;;;;;25.35;13.82;;;2.90;99.90;;;;;;6210896;23;20021;-70
2023/12/06 08:49:43;;;;;;;23.52;14.45;;;2.80;99.90;;;;;;6210724;23;20143;-71
2023/12/06 08:52:10;;;;;;;19.65;12.50;;;2.90;99.90;;;;;;6210714;23;20052;-70
2023/12/06 08:54:39;;;;;;;21.40;14.13;;;2.90;99.90;;;;;;6210753;23;20519;-70
2023/12/06 08:57:05;;;;;;;18.55;12.32;;;2.90;99.90;;;;;;6211069;23;20376;-70
2023/12/06 08:59:30;;;;;;;18.25;12.95;;;2.90;99.90;;;;;;6210835;23;20016;-70
2023/12/06 09:01:56;;;;;;;21.85;13.30;;;3.00;99.90;;;;;;6184045;23;20097;-70
2023/12/06 09:04:22;;;;;;;24.40;13.10;;;2.90;99.90;;;;;;6210728;23;20322;-70
2023/12/06 09:06:48;;;;;;;24.02;12.80;;;2.90;99.90;;;;;;6210817;23;20024;-69
2023/12/06 09:09:17;;;;;;;20.27;13.07;;;3.00;99.90;;;;;;6183895;23;20326;-70
2023/12/06 09:11:44;;;;;;;21.70;13.95;;;3.00;99.90;;;;;;6210530;23;20004;-70
2023/12/06 09:14:09;;;;;;;19.33;12.85;;;3.00;99.90;;;;;;6210999;23;20020;-71
2023/12/06 09:16:36;;;;;;;18.88;12.93;;;3.00;99.90;;;;;;6184376;23;20096;-71
2023/12/06 09:19:05;;;;;;;20.77;14.02;;;3.00;99.90;;;;;;6184755;23;20074;-71
2023/12/06 09:21:44;;;;;;;29.13;16.35;;;3.00;99.90;;;;;;6211192;23;20394;-71
2023/12/06 09:24:10;;;;;;;25.80;15.15;;;3.00;99.90;;;;;;6211132;23;20013;-70
2023/12/06 09:26:40;;;;;;;22.05;13.65;;;3.10;99.90;;;;;;6183268;23;20063;-70
2023/12/06 09:29:08;;;;;;;20.15;12.95;;;3.10;99.90;;;;;;6210627;23;20032;-71
2023/12/06 09:31:34;;;;;;;22.33;13.25;;;3.10;99.90;;;;;;6211013;23;20385;-71
2023/12/06 09:34:01;;;;;;;19.77;12.85;;;3.10;99.90;;;;;;6209980;23;20052;-71
2023/12/06 09:36:28;;;;;;;21.50;13.75;;;3.10;99.90;;;;;;6184234;23;20472;-70
2023/12/06 09:39:04;;;;;;;17.30;13.02;;;3.10;99.90;;;;;;6184238;23;20027;-70
2023/12/06 09:41:32;;;;;;;21.05;13.73;;;3.10;99.90;;;;;;6210706;23;20017;-70
2023/12/06 09:43:59;;;;;;;19.58;13.43;;;3.10;99.90;;;;;;6210568;23;20664;-70
2023/12/06 09:46:26;;;;;;;20.27;12.48;;;3.10;99.90;;;;;;6183616;23;20028;-70
2023/12/06 09:48:55;;;;;;;21.38;12.88;;;3.20;99.90;;;;;;6183411;23;20483;-70
2023/12/06 09:51:22;;;;;;;23.80;13.48;;;3.20;99.90;;;;;;6210412;23;20028;-70
2023/12/06 09:53:48;;;;;;;20.95;13.25;;;3.20;99.90;;;;;;6183571;23;20020;-71
2023/12/06 09:56:14;;;;;;;19.25;13.10;;;3.20;99.90;;;;;;6210730;23;20345;-70
2023/12/06 09:58:40;;;;;;;17.73;11.77;;;3.20;99.90;;;;;;6210901;23;20016;-70
2023/12/06 10:01:06;;;;;;;19.17;12.57;;;3.20;99.90;;;;;;6210526;23;20365;-70
2023/12/06 10:03:32;;;;;;;21.33;12.93;;;3.20;99.90;;;;;;6210753;23;20031;-71
2023/12/06 10:06:03;;;;;;;21.30;12.68;;;3.20;99.90;;;;;;6210372;23;20060;-70
2023/12/06 10:08:30;;;;;;;17.75;12.13;;;3.20;99.90;;;;;;6183564;23;20060;-70
2023/12/06 10:11:12;;;;;;;23.20;13.07;;;3.20;99.90;;;;;;6183723;23;20079;-70
2023/12/06 10:13:41;;;;;;;21.55;13.02;;;3.30;99.90;;;;;;6211053;23;20025;-71
2023/12/06 10:16:19;;;;;;;52.38;21.52;;;3.20;99.90;;;;;;6212329;23;20013;-70
2023/12/06 10:18:48;;;;;;;28.17;15.75;;;3.30;99.90;;;;;;6185372;23;20087;-70
2023/12/06 10:21:15;;;;;;;73.95;25.42;;;3.30;99.90;;;;;;6212026;23;20059;-70
2023/12/06 10:23:42;;;;;;;75.60;26.00;;;3.30;99.90;;;;;;6185222;23;20024;-70
2023/12/06 10:26:15;;;;;;;41.45;18.20;;;3.30;99.90;;;;;;6185171;23;20354;-70
2023/12/06 10:28:41;;;;;;;39.22;17.92;;;3.30;99.90;;;;;;6211940;23;20061;-70
2023/12/06 10:31:08;;;;;;;40.67;17.88;;;3.30;99.90;;;;;;6211618;23;20224;-70
2023/12/06 10:33:34;;;;;;;28.35;16.48;;;3.30;99.90;;;;;;6184782;23;20029;-70
2023/12/06 10:36:02;;;;;;;26.88;14.23;;;3.40;99.90;;;;;;6211879;23;20021;-70
2023/12/06 10:38:29;;;;;;;21.67;12.30;;;3.30;99.90;;;;;;6212298;23;20028;-70
2023/12/06 10:41:02;;;;;;;23.20;13.70;;;3.30;99.90;;;;;;6211814;23;20028;-70
2023/12/06 10:43:29;;;;;;;21.00;12.45;;;3.40;99.90;;;;;;6212165;23;20374;-70
2023/12/06 10:45:55;;;;;;;24.08;12.15;;;3.40;99.90;;;;;;6211766;23;20044;-68
2023/12/06 10:48:21;;;;;;;21.98;13.30;;;3.40;99.90;;;;;;6211853;23;20052;-70
2023/12/06 10:50:49;;;;;;;18.98;11.85;;;3.40;99.90;;;;;;6211974;23;20178;-69
2023/12/06 10:53:17;;;;;;;24.20;12.40;;;3.40;99.90;;;;;;6211850;23;20091;-69
2023/12/06 10:55:43;;;;;;;21.88;11.82;;;3.40;99.90;;;;;;6211830;23;20357;-69
2023/12/06 10:58:09;;;;;;;17.73;11.95;;;3.40;99.90;;;;;;6212040;23;20040;-69
2023/12/06 11:00:35;;;;;;;18.70;12.48;;;3.40;99.90;;;;;;6160039;23;20059;-68
2023/12/06 11:03:02;;;;;;;18.98;11.02;;;3.50;99.90;;;;;;6211966;23;20024;-69
2023/12/06 11:05:37;;;;;;;21.15;12.18;;;3.50;99.90;;;;;;6212363;23;20036;-69
2023/12/06 11:08:48;;;;;;;20.92;13.30;;;3.50;99.90;;;;;;6211696;23;20023;-70
2023/12/06 11:11:56;;;;;;;19.73;13.70;;;3.50;99.90;;;;;;6128910;23;20020;-70
2023/12/06 11:14:50;;;;;;;18.45;12.80;;;3.50;99.90;;;;;;6091820;23;20024;-69
2023/12/06 11:17:43;;;;;;;22.80;12.57;;;3.60;99.90;;;;;;6212108;23;20090;-69
2023/12/06 11:20:09;;;;;;;18.67;12.18;;;3.60;99.90;;;;;;6212097;23;20094;-69
2023/12/06 11:22:37;;;;;;;22.58;12.15;;;3.60;99.90;;;;;;6184717;23;20028;-70
2023/12/06 11:25:03;;;;;;;21.50;13.80;;;3.60;99.90;;;;;;6211575;23;20024;-70
2023/12/06 11:27:29;;;;;;;21.83;13.93;;;3.60;99.90;;;;;;6184688;23;20028;-69
2023/12/06 11:29:55;;;;;;;18.45;11.82;;;3.70;99.90;;;;;;6211512;23;20078;-70
2023/12/06 11:32:21;;;;;;;19.20;12.18;;;3.60;99.90;;;;;;6211317;23;20063;-69
2023/12/06 11:34:58;;;;;;;21.23;13.35;;;3.70;99.90;;;;;;6211779;23;20027;-69
2023/12/06 11:37:23;;;;;;;22.45;13.02;;;3.70;99.90;;;;;;6212060;23;20374;-70
2023/12/06 11:40:11;;;;;;;22.10;14.07;;;3.70;99.90;;;;;;6160174;23;20052;-70
2023/12/06 11:42:38;;;;;;;19.27;12.77;;;3.60;99.90;;;;;;6211286;23;20020;-70
2023/12/06 11:45:37;;;;;;;19.05;11.30;;;3.70;99.90;;;;;;6211679;23;20024;-70
2023/12/06 11:48:05;;;;;;;19.88;10.85;;;3.70;99.90;;;;;;6130603;23;20404;-70
2023/12/06 11:50:52;;;;;;;21.05;11.57;;;3.70;99.90;;;;;;6211904;23;20020;-70
2023/12/06 11:53:19;;;;;;;17.73;11.15;;;3.70;99.90;;;;;;6211914;23;20017;-69
2023/12/06 11:55:46;;;;;;;21.60;12.32;;;3.70;99.90;;;;;;6184818;23;20100;-70
2023/12/06 11:58:13;;;;;;;15.10;10.98;;;3.70;99.90;;;;;;6210907;23;20055;-70
2023/12/06 12:00:41;;;;;;;15.68;10.65;;;3.70;99.90;;;;;;6211451;23;20084;-69
2023/12/06 12:03:07;;;;;;;18.38;11.63;;;3.80;99.90;;;;;;6211261;23;20352;-70
2023/12/06 12:05:33;;;;;;;17.13;10.60;;;3.80;99.90;;;;;;6185307;23;20028;-70
2023/12/06 12:08:03;;;;;;;15.40;10.45;;;3.80;99.90;;;;;;6185469;23;20032;-70
2023/12/06 12:10:30;;;;;;;15.52;10.75;;;3.80;99.90;;;;;;6211495;23;20440;-69
2023/12/06 12:12:56;;;;;;;16.92;11.00;;;3.90;99.90;;;;;;6183899;23;20354;-70
2023/12/06 12:15:25;;;;;;;15.88;10.38;;;3.80;99.90;;;;;;6210953;23;20030;-69
2023/12/06 12:17:52;;;;;;;16.95;10.82;;;3.80;99.90;;;;;;6184144;23;20400;-69
2023/12/06 12:20:18;;;;;;;18.33;11.80;;;3.80;99.90;;;;;;6184270;23;20028;-69
2023/12/06 12:22:49;;;;;;;15.25;10.73;;;3.90;99.90;;;;;;6209606;23;20024;-69
2023/12/06 12:25:15;;;;;;;17.67;9.93;;;3.90;99.90;;;;;;6211112;23;20083;-68
2023/12/06 12:27:43;;;;;;;20.35;11.65;;;3.90;99.90;;;;;;6182079;23;20108;-69
2023/12/06 12:30:10;;;;;;;20.40;11.45;;;3.90;99.90;;;;;;6210839;23;20389;-69
2023/12/06 12:32:48;;;;;;;19.27;12.27;;;3.90;99.90;;;;;;6210591;23;20032;-68
2023/12/06 12:35:14;;;;;;;17.75;11.35;;;3.80;99.90;;;;;;6210948;23;20348;-68